sensor_id;sensor_type;location;lat;lon;timestamp;P1;durP1;ratioP1;P2;durP2;ratioP2
34212;SDS011;20477;51.390;8.102;2023-03-21T04:17:54;32.53;;;13.13;;
34212;SDS011;20477;51.390;8.102;2023-03-21T04:20:32;27.50;;;12.15;;
34212;SDS011;20477;51.390;8.102;2023-03-21T04:23:02;24.67;;;12.07;;
34212;SDS011;20477;51.390;8.102;2023-03-21T04:25:32;34.08;;;11.95;;
34212;SDS011;20477;51.390;8.102;2023-03-21T04:28:04;32.30;;;13.13;;
34212;SDS011;20477;51.390;8.102;2023-03-21T04:30:33;28.85;;;11.50;;
34212;SDS011;20477;51.390;8.102;2023-03-21T04:33:05;28.55;;;12.15;;
34212;SDS011;20477;51.390;8.102;2023-03-21T04:35:33;25.70;;;12.20;;
34212;SDS011;20477;51.390;8.102;2023-03-21T04:38:06;27.15;;;11.15;;
34212;SDS011;20477;51.390;8.102;2023-03-21T04:40:34;31.65;;;13.20;;
34212;SDS011;20477;51.390;8.102;2023-03-21T04:43:03;25.00;;;11.48;;
34212;SDS011;20477;51.390;8.102;2023-03-21T04:45:31;25.73;;;11.63;;
34212;SDS011;20477;51.390;8.102;2023-03-21T04:48:00;34.15;;;12.55;;
34212;SDS011;20477;51.390;8.102;2023-03-21T04:50:31;31.48;;;12.75;;
34212;SDS011;20477;51.390;8.102;2023-03-21T04:53:01;31.27;;;12.93;;
34212;SDS011;20477;51.390;8.102;2023-03-21T04:55:29;28.27;;;11.60;;
34212;SDS011;20477;51.390;8.102;2023-03-21T04:57:58;26.60;;;12.43;;
34212;SDS011;20477;51.390;8.102;2023-03-21T05:00:27;29.45;;;12.18;;
34212;SDS011;20477;51.390;8.102;2023-03-21T05:02:56;26.40;;;11.85;;
34212;SDS011;20477;51.390;8.102;2023-03-21T05:05:25;33.40;;;13.40;;
34212;SDS011;20477;51.390;8.102;2023-03-21T05:07:55;28.20;;;13.02;;
34212;SDS011;20477;51.390;8.102;2023-03-21T05:10:25;31.02;;;13.65;;
34212;SDS011;20477;51.390;8.102;2023-03-21T05:12:55;31.58;;;14.35;;
34212;SDS011;20477;51.390;8.102;2023-03-21T05:15:23;30.45;;;12.13;;
34212;SDS011;20477;51.390;8.102;2023-03-21T05:17:52;27.55;;;12.07;;
34212;SDS011;20477;51.390;8.102;2023-03-21T05:20:20;27.40;;;12.25;;
34212;SDS011;20477;51.390;8.102;2023-03-21T05:22:49;32.35;;;13.02;;
34212;SDS011;20477;51.390;8.102;2023-03-21T05:25:19;29.67;;;12.07;;
34212;SDS011;20477;51.390;8.102;2023-03-21T05:28:02;30.13;;;12.45;;
34212;SDS011;20477;51.390;8.102;2023-03-21T05:30:32;27.30;;;12.23;;
34212;SDS011;20477;51.390;8.102;2023-03-21T05:33:01;22.02;;;12.13;;
34212;SDS011;20477;51.390;8.102;2023-03-21T05:35:29;30.60;;;12.35;;
34212;SDS011;20477;51.390;8.102;2023-03-21T05:37:58;30.67;;;12.07;;
34212;SDS011;20477;51.390;8.102;2023-03-21T05:40:27;26.42;;;11.32;;
34212;SDS011;20477;51.390;8.102;2023-03-21T05:42:56;30.27;;;10.93;;
34212;SDS011;20477;51.390;8.102;2023-03-21T05:45:24;24.88;;;11.10;;
34212;SDS011;20477;51.390;8.102;2023-03-21T05:47:53;31.05;;;11.45;;
34212;SDS011;20477;51.390;8.102;2023-03-21T05:50:22;24.17;;;11.52;;
34212;SDS011;20477;51.390;8.102;2023-03-21T05:52:51;35.28;;;12.45;;
34212;SDS011;20477;51.390;8.102;2023-03-21T05:55:22;27.08;;;12.07;;
34212;SDS011;20477;51.390;8.102;2023-03-21T05:57:53;28.63;;;11.18;;
34212;SDS011;20477;51.390;8.102;2023-03-21T06:00:22;27.08;;;11.25;;
34212;SDS011;20477;51.390;8.102;2023-03-21T06:02:51;30.55;;;10.82;;
34212;SDS011;20477;51.390;8.102;2023-03-21T06:05:20;28.60;;;11.95;;
34212;SDS011;20477;51.390;8.102;2023-03-21T06:07:49;26.42;;;11.38;;
34212;SDS011;20477;51.390;8.102;2023-03-21T06:10:20;26.88;;;11.90;;
34212;SDS011;20477;51.390;8.102;2023-03-21T06:12:49;22.70;;;9.43;;
34212;SDS011;20477;51.390;8.102;2023-03-21T06:15:19;26.70;;;11.25;;
34212;SDS011;20477;51.390;8.102;2023-03-21T06:17:48;30.42;;;11.20;;
34212;SDS011;20477;51.390;8.102;2023-03-21T06:20:17;24.95;;;11.38;;
34212;SDS011;20477;51.390;8.102;2023-03-21T06:22:45;29.20;;;15.50;;
34212;SDS011;20477;51.390;8.102;2023-03-21T06:25:17;27.73;;;12.13;;
34212;SDS011;20477;51.390;8.102;2023-03-21T06:27:45;30.52;;;11.57;;
34212;SDS011;20477;51.390;8.102;2023-03-21T06:32:46;31.00;;;10.65;;
34212;SDS011;20477;51.390;8.102;2023-03-21T06:35:15;26.98;;;10.13;;
34212;SDS011;20477;51.390;8.102;2023-03-21T06:37:43;23.60;;;10.00;;
34212;SDS011;20477;51.390;8.102;2023-03-21T06:40:14;29.42;;;9.20;;
34212;SDS011;20477;51.390;8.102;2023-03-21T06:42:43;24.75;;;9.75;;
34212;SDS011;20477;51.390;8.102;2023-03-21T06:45:25;17.02;;;8.95;;
34212;SDS011;20477;51.390;8.102;2023-03-21T06:47:55;21.48;;;9.75;;
34212;SDS011;20477;51.390;8.102;2023-03-21T06:50:25;21.27;;;9.27;;
34212;SDS011;20477;51.390;8.102;2023-03-21T06:52:53;28.10;;;9.77;;
34212;SDS011;20477;51.390;8.102;2023-03-21T06:55:23;20.60;;;9.73;;
34212;SDS011;20477;51.390;8.102;2023-03-21T06:57:52;23.50;;;9.43;;
34212;SDS011;20477;51.390;8.102;2023-03-21T07:00:21;21.80;;;9.00;;
34212;SDS011;20477;51.390;8.102;2023-03-21T07:02:51;24.63;;;9.60;;
34212;SDS011;20477;51.390;8.102;2023-03-21T07:05:22;19.67;;;9.05;;
34212;SDS011;20477;51.390;8.102;2023-03-21T07:07:50;23.67;;;9.63;;
34212;SDS011;20477;51.390;8.102;2023-03-21T07:10:22;19.70;;;9.38;;
34212;SDS011;20477;51.390;8.102;2023-03-21T07:12:50;24.45;;;8.57;;
34212;SDS011;20477;51.390;8.102;2023-03-21T07:15:22;25.10;;;9.73;;
34212;SDS011;20477;51.390;8.102;2023-03-21T07:17:50;23.35;;;9.48;;
34212;SDS011;20477;51.390;8.102;2023-03-21T07:20:19;20.38;;;8.55;;
34212;SDS011;20477;51.390;8.102;2023-03-21T07:22:51;22.55;;;8.63;;
34212;SDS011;20477;51.390;8.102;2023-03-21T07:25:20;24.23;;;9.60;;
34212;SDS011;20477;51.390;8.102;2023-03-21T07:27:50;22.15;;;8.00;;
34212;SDS011;20477;51.390;8.102;2023-03-21T07:30:20;23.73;;;8.63;;
34212;SDS011;20477;51.390;8.102;2023-03-21T07:32:49;23.38;;;9.05;;
34212;SDS011;20477;51.390;8.102;2023-03-21T07:35:18;26.15;;;9.00;;
34212;SDS011;20477;51.390;8.102;2023-03-21T07:37:50;17.15;;;7.78;;
34212;SDS011;20477;51.390;8.102;2023-03-21T07:40:20;23.55;;;8.80;;
34212;SDS011;20477;51.390;8.102;2023-03-21T07:42:51;23.65;;;9.25;;
34212;SDS011;20477;51.390;8.102;2023-03-21T10:03:16;18.60;;;7.32;;
34212;SDS011;20477;51.390;8.102;2023-03-21T10:43:29;14.63;;;5.78;;
34212;SDS011;20477;51.390;8.102;2023-03-21T10:46:04;15.82;;;6.10;;
34212;SDS011;20477;51.390;8.102;2023-03-21T10:48:39;13.50;;;5.85;;
34212;SDS011;20477;51.390;8.102;2023-03-21T10:51:14;10.18;;;6.25;;
34212;SDS011;20477;51.390;8.102;2023-03-21T10:53:45;22.93;;;6.93;;
34212;SDS011;20477;51.390;8.102;2023-03-21T10:56:16;9.43;;;5.40;;
34212;SDS011;20477;51.390;8.102;2023-03-21T10:58:46;14.40;;;5.55;;
34212;SDS011;20477;51.390;8.102;2023-03-21T11:03:53;9.25;;;4.28;;
34212;SDS011;20477;51.390;8.102;2023-03-21T11:06:26;13.05;;;5.47;;
34212;SDS011;20477;51.390;8.102;2023-03-21T11:08:57;10.85;;;4.65;;
34212;SDS011;20477;51.390;8.102;2023-03-21T11:11:31;11.65;;;4.40;;
34212;SDS011;20477;51.390;8.102;2023-03-21T11:14:03;8.15;;;4.75;;
34212;SDS011;20477;51.390;8.102;2023-03-21T11:16:35;11.50;;;5.22;;
34212;SDS011;20477;51.390;8.102;2023-03-21T11:19:13;7.95;;;3.88;;
34212;SDS011;20477;51.390;8.102;2023-03-21T11:21:42;11.75;;;5.00;;
34212;SDS011;20477;51.390;8.102;2023-03-21T11:24:14;9.07;;;4.80;;
34212;SDS011;20477;51.390;8.102;2023-03-21T11:26:44;8.95;;;4.10;;
34212;SDS011;20477;51.390;8.102;2023-03-21T11:29:22;7.93;;;4.18;;
34212;SDS011;20477;51.390;8.102;2023-03-21T11:34:29;8.27;;;4.13;;
34212;SDS011;20477;51.390;8.102;2023-03-21T11:37:00;11.15;;;4.32;;
34212;SDS011;20477;51.390;8.102;2023-03-21T11:39:30;9.18;;;3.92;;
34212;SDS011;20477;51.390;8.102;2023-03-21T11:42:05;6.25;;;3.40;;
34212;SDS011;20477;51.390;8.102;2023-03-21T11:44:49;10.55;;;3.42;;
34212;SDS011;20477;51.390;8.102;2023-03-21T11:47:24;8.15;;;4.13;;
34212;SDS011;20477;51.390;8.102;2023-03-21T11:49:53;8.15;;;4.72;;
34212;SDS011;20477;51.390;8.102;2023-03-21T11:52:32;6.93;;;3.45;;
34212;SDS011;20477;51.390;8.102;2023-03-21T11:55:16;8.30;;;3.90;;
34212;SDS011;20477;51.390;8.102;2023-03-21T11:57:56;12.13;;;3.83;;
34212;SDS011;20477;51.390;8.102;2023-03-21T12:00:42;12.15;;;4.97;;
34212;SDS011;20477;51.390;8.102;2023-03-21T12:06:22;7.55;;;3.40;;
34212;SDS011;20477;51.390;8.102;2023-03-21T12:09:02;9.30;;;4.07;;
34212;SDS011;20477;51.390;8.102;2023-03-21T12:11:40;11.85;;;3.70;;
34212;SDS011;20477;51.390;8.102;2023-03-21T12:14:14;9.02;;;3.42;;
34212;SDS011;20477;51.390;8.102;2023-03-21T12:16:51;9.82;;;3.05;;
34212;SDS011;20477;51.390;8.102;2023-03-21T12:19:38;9.10;;;3.53;;
34212;SDS011;20477;51.390;8.102;2023-03-21T12:25:00;6.18;;;3.13;;
34212;SDS011;20477;51.390;8.102;2023-03-21T12:27:36;10.43;;;3.75;;
34212;SDS011;20477;51.390;8.102;2023-03-21T12:30:16;10.30;;;3.15;;
34212;SDS011;20477;51.390;8.102;2023-03-21T12:32:59;7.72;;;2.88;;
34212;SDS011;20477;51.390;8.102;2023-03-21T12:35:49;10.43;;;3.72;;
34212;SDS011;20477;51.390;8.102;2023-03-21T12:38:22;9.43;;;2.80;;
34212;SDS011;20477;51.390;8.102;2023-03-21T12:41:04;13.70;;;3.17;;
34212;SDS011;20477;51.390;8.102;2023-03-21T12:43:41;9.50;;;2.85;;
34212;SDS011;20477;51.390;8.102;2023-03-21T12:46:13;9.70;;;3.03;;
34212;SDS011;20477;51.390;8.102;2023-03-21T12:48:48;7.82;;;3.20;;
34212;SDS011;20477;51.390;8.102;2023-03-21T12:51:20;9.32;;;3.40;;
34212;SDS011;20477;51.390;8.102;2023-03-21T12:53:55;11.30;;;3.55;;
34212;SDS011;20477;51.390;8.102;2023-03-21T12:56:28;8.57;;;2.83;;
34212;SDS011;20477;51.390;8.102;2023-03-21T12:58:59;7.20;;;2.90;;
34212;SDS011;20477;51.390;8.102;2023-03-21T13:01:30;8.87;;;3.57;;
34212;SDS011;20477;51.390;8.102;2023-03-21T13:04:11;10.27;;;3.83;;
34212;SDS011;20477;51.390;8.102;2023-03-21T13:06:50;9.15;;;3.25;;
34212;SDS011;20477;51.390;8.102;2023-03-21T13:09:21;8.15;;;3.08;;
34212;SDS011;20477;51.390;8.102;2023-03-21T13:12:05;6.25;;;3.03;;
34212;SDS011;20477;51.390;8.102;2023-03-21T13:14:44;6.85;;;2.78;;
34212;SDS011;20477;51.390;8.102;2023-03-21T13:17:21;8.85;;;3.20;;
34212;SDS011;20477;51.390;8.102;2023-03-21T13:19:54;11.63;;;3.25;;
34212;SDS011;20477;51.390;8.102;2023-03-21T13:22:25;12.02;;;3.25;;
34212;SDS011;20477;51.390;8.102;2023-03-21T13:24:56;7.00;;;2.63;;
34212;SDS011;20477;51.390;8.102;2023-03-21T13:27:26;11.07;;;5.43;;
34212;SDS011;20477;51.390;8.102;2023-03-21T13:29:59;8.07;;;2.50;;
34212;SDS011;20477;51.390;8.102;2023-03-21T13:32:32;8.73;;;2.85;;
34212;SDS011;20477;51.390;8.102;2023-03-21T13:35:13;9.02;;;2.67;;
34212;SDS011;20477;51.390;8.102;2023-03-21T13:37:42;7.72;;;2.45;;
34212;SDS011;20477;51.390;8.102;2023-03-21T13:40:20;9.48;;;2.65;;
34212;SDS011;20477;51.390;8.102;2023-03-21T13:42:51;7.78;;;2.42;;
34212;SDS011;20477;51.390;8.102;2023-03-21T13:45:23;6.20;;;2.45;;
34212;SDS011;20477;51.390;8.102;2023-03-21T13:47:54;7.07;;;2.47;;
34212;SDS011;20477;51.390;8.102;2023-03-21T13:50:27;3.72;;;1.83;;
34212;SDS011;20477;51.390;8.102;2023-03-21T13:55:58;5.05;;;2.30;;
34212;SDS011;20477;51.390;8.102;2023-03-21T13:58:31;9.35;;;2.22;;
34212;SDS011;20477;51.390;8.102;2023-03-21T14:01:07;6.60;;;2.58;;
34212;SDS011;20477;51.390;8.102;2023-03-21T14:03:49;8.20;;;2.72;;
34212;SDS011;20477;51.390;8.102;2023-03-21T14:06:19;6.53;;;2.33;;
34212;SDS011;20477;51.390;8.102;2023-03-21T14:08:47;9.40;;;3.10;;
34212;SDS011;20477;51.390;8.102;2023-03-21T14:11:16;7.05;;;2.40;;
34212;SDS011;20477;51.390;8.102;2023-03-21T14:13:45;5.47;;;2.25;;
34212;SDS011;20477;51.390;8.102;2023-03-21T14:16:17;6.68;;;2.72;;
34212;SDS011;20477;51.390;8.102;2023-03-21T14:18:47;5.75;;;2.33;;
34212;SDS011;20477;51.390;8.102;2023-03-21T14:21:22;5.20;;;2.30;;
34212;SDS011;20477;51.390;8.102;2023-03-21T14:23:56;8.68;;;3.22;;
34212;SDS011;20477;51.390;8.102;2023-03-21T14:26:26;6.10;;;2.42;;
34212;SDS011;20477;51.390;8.102;2023-03-21T14:28:57;6.25;;;2.72;;
34212;SDS011;20477;51.390;8.102;2023-03-21T14:31:25;5.10;;;2.20;;
34212;SDS011;20477;51.390;8.102;2023-03-21T14:33:55;6.75;;;2.30;;
34212;SDS011;20477;51.390;8.102;2023-03-21T14:36:26;5.07;;;2.10;;
34212;SDS011;20477;51.390;8.102;2023-03-21T14:38:56;3.88;;;2.00;;
34212;SDS011;20477;51.390;8.102;2023-03-21T14:41:31;4.30;;;2.10;;
34212;SDS011;20477;51.390;8.102;2023-03-21T14:44:00;7.15;;;2.50;;
34212;SDS011;20477;51.390;8.102;2023-03-21T14:46:29;10.95;;;3.15;;
34212;SDS011;20477;51.390;8.102;2023-03-21T14:49:08;4.03;;;1.98;;
34212;SDS011;20477;51.390;8.102;2023-03-21T14:51:41;5.15;;;2.00;;
34212;SDS011;20477;51.390;8.102;2023-03-21T14:54:12;6.63;;;2.45;;
34212;SDS011;20477;51.390;8.102;2023-03-21T14:56:46;5.18;;;1.65;;
34212;SDS011;20477;51.390;8.102;2023-03-21T14:59:18;6.78;;;1.80;;
34212;SDS011;20477;51.390;8.102;2023-03-21T15:01:48;4.38;;;2.15;;
34212;SDS011;20477;51.390;8.102;2023-03-21T15:04:17;5.03;;;2.45;;
34212;SDS011;20477;51.390;8.102;2023-03-21T15:06:52;5.43;;;2.05;;
34212;SDS011;20477;51.390;8.102;2023-03-21T15:09:23;5.85;;;2.30;;
34212;SDS011;20477;51.390;8.102;2023-03-21T15:11:54;9.55;;;3.08;;
34212;SDS011;20477;51.390;8.102;2023-03-21T15:14:24;3.63;;;2.10;;
34212;SDS011;20477;51.390;8.102;2023-03-21T15:16:55;11.32;;;3.00;;
34212;SDS011;20477;51.390;8.102;2023-03-21T15:19:28;5.75;;;2.15;;
34212;SDS011;20477;51.390;8.102;2023-03-21T15:22:03;3.50;;;2.05;;
34212;SDS011;20477;51.390;8.102;2023-03-21T15:24:35;4.00;;;2.25;;
34212;SDS011;20477;51.390;8.102;2023-03-21T15:27:06;5.95;;;2.40;;
34212;SDS011;20477;51.390;8.102;2023-03-21T15:29:35;8.68;;;2.80;;
34212;SDS011;20477;51.390;8.102;2023-03-21T15:32:03;4.68;;;2.47;;
34212;SDS011;20477;51.390;8.102;2023-03-21T15:34:33;5.43;;;2.20;;
34212;SDS011;20477;51.390;8.102;2023-03-21T15:37:04;5.78;;;2.03;;
34212;SDS011;20477;51.390;8.102;2023-03-21T15:39:33;4.63;;;2.17;;
34212;SDS011;20477;51.390;8.102;2023-03-21T15:42:03;6.32;;;2.53;;
34212;SDS011;20477;51.390;8.102;2023-03-21T15:44:33;4.15;;;1.92;;
34212;SDS011;20477;51.390;8.102;2023-03-21T15:47:01;7.50;;;2.28;;
34212;SDS011;20477;51.390;8.102;2023-03-21T15:49:30;3.25;;;2.13;;
34212;SDS011;20477;51.390;8.102;2023-03-21T15:52:04;3.45;;;2.15;;
34212;SDS011;20477;51.390;8.102;2023-03-21T15:54:34;6.18;;;2.72;;
34212;SDS011;20477;51.390;8.102;2023-03-21T15:57:16;7.50;;;4.82;;
34212;SDS011;20477;51.390;8.102;2023-03-21T15:59:47;6.60;;;2.50;;
34212;SDS011;20477;51.390;8.102;2023-03-21T16:02:15;8.18;;;2.60;;
34212;SDS011;20477;51.390;8.102;2023-03-21T16:04:56;4.70;;;1.95;;
34212;SDS011;20477;51.390;8.102;2023-03-21T16:07:26;7.20;;;2.10;;
34212;SDS011;20477;51.390;8.102;2023-03-21T16:09:59;5.65;;;2.35;;
34212;SDS011;20477;51.390;8.102;2023-03-21T16:12:29;4.55;;;2.15;;
34212;SDS011;20477;51.390;8.102;2023-03-21T16:14:59;4.95;;;2.83;;
34212;SDS011;20477;51.390;8.102;2023-03-21T16:17:30;6.93;;;2.90;;
34212;SDS011;20477;51.390;8.102;2023-03-21T16:20:00;4.60;;;2.55;;
34212;SDS011;20477;51.390;8.102;2023-03-21T16:22:31;3.90;;;2.20;;
34212;SDS011;20477;51.390;8.102;2023-03-21T16:25:01;3.92;;;2.53;;
34212;SDS011;20477;51.390;8.102;2023-03-21T16:27:29;4.85;;;2.80;;
34212;SDS011;20477;51.390;8.102;2023-03-21T16:29:57;9.43;;;3.15;;
34212;SDS011;20477;51.390;8.102;2023-03-21T16:32:25;4.95;;;3.00;;
34212;SDS011;20477;51.390;8.102;2023-03-21T16:34:54;8.73;;;3.17;;
34212;SDS011;20477;51.390;8.102;2023-03-21T16:37:22;9.55;;;4.22;;
34212;SDS011;20477;51.390;8.102;2023-03-21T16:39:51;8.05;;;3.53;;
34212;SDS011;20477;51.390;8.102;2023-03-21T16:42:19;10.60;;;3.30;;
34212;SDS011;20477;51.390;8.102;2023-03-21T16:44:47;11.98;;;3.78;;
34212;SDS011;20477;51.390;8.102;2023-03-21T16:47:16;9.30;;;4.32;;
34212;SDS011;20477;51.390;8.102;2023-03-21T16:49:46;6.22;;;2.85;;
34212;SDS011;20477;51.390;8.102;2023-03-21T16:52:15;5.75;;;3.17;;
34212;SDS011;20477;51.390;8.102;2023-03-21T16:54:43;6.53;;;3.22;;
34212;SDS011;20477;51.390;8.102;2023-03-21T16:57:18;8.23;;;3.50;;
34212;SDS011;20477;51.390;8.102;2023-03-21T16:59:53;6.80;;;3.47;;
34212;SDS011;20477;51.390;8.102;2023-03-21T17:02:22;6.95;;;3.30;;
34212;SDS011;20477;51.390;8.102;2023-03-21T17:04:51;5.90;;;2.95;;
34212;SDS011;20477;51.390;8.102;2023-03-21T17:07:19;6.80;;;3.17;;
34212;SDS011;20477;51.390;8.102;2023-03-21T17:09:47;9.38;;;3.28;;
34212;SDS011;20477;51.390;8.102;2023-03-21T17:12:17;7.65;;;2.80;;
34212;SDS011;20477;51.390;8.102;2023-03-21T17:14:46;5.22;;;2.85;;
34212;SDS011;20477;51.390;8.102;2023-03-21T17:17:14;9.57;;;3.13;;
34212;SDS011;20477;51.390;8.102;2023-03-21T17:19:43;4.03;;;2.90;;
34212;SDS011;20477;51.390;8.102;2023-03-21T17:22:11;7.05;;;3.22;;
34212;SDS011;20477;51.390;8.102;2023-03-21T17:24:40;8.95;;;4.78;;
34212;SDS011;20477;51.390;8.102;2023-03-21T17:27:10;11.07;;;4.32;;
34212;SDS011;20477;51.390;8.102;2023-03-21T17:29:41;6.90;;;4.00;;
34212;SDS011;20477;51.390;8.102;2023-03-21T17:32:10;11.45;;;3.97;;
34212;SDS011;20477;51.390;8.102;2023-03-21T17:34:39;6.75;;;3.47;;
34212;SDS011;20477;51.390;8.102;2023-03-21T17:37:07;7.30;;;4.03;;
34212;SDS011;20477;51.390;8.102;2023-03-21T17:39:36;8.43;;;3.38;;
34212;SDS011;20477;51.390;8.102;2023-03-21T17:42:04;10.30;;;4.65;;
34212;SDS011;20477;51.390;8.102;2023-03-21T17:44:35;8.73;;;3.70;;
34212;SDS011;20477;51.390;8.102;2023-03-21T17:47:05;6.10;;;3.55;;
34212;SDS011;20477;51.390;8.102;2023-03-21T17:49:33;11.40;;;5.18;;
34212;SDS011;20477;51.390;8.102;2023-03-21T17:52:02;7.55;;;4.00;;
34212;SDS011;20477;51.390;8.102;2023-03-21T17:54:31;12.32;;;4.60;;
34212;SDS011;20477;51.390;8.102;2023-03-21T17:56:59;8.30;;;5.30;;
34212;SDS011;20477;51.390;8.102;2023-03-21T17:59:27;11.55;;;4.45;;
34212;SDS011;20477;51.390;8.102;2023-03-21T18:01:55;9.73;;;4.47;;
34212;SDS011;20477;51.390;8.102;2023-03-21T18:04:24;7.80;;;4.18;;
34212;SDS011;20477;51.390;8.102;2023-03-21T18:06:53;7.00;;;4.35;;
34212;SDS011;20477;51.390;8.102;2023-03-21T18:09:25;7.57;;;4.97;;
34212;SDS011;20477;51.390;8.102;2023-03-21T18:11:54;9.98;;;3.90;;
34212;SDS011;20477;51.390;8.102;2023-03-21T18:14:22;11.05;;;4.88;;
34212;SDS011;20477;51.390;8.102;2023-03-21T18:16:54;8.23;;;5.10;;
34212;SDS011;20477;51.390;8.102;2023-03-21T18:19:22;7.75;;;5.28;;
34212;SDS011;20477;51.390;8.102;2023-03-21T18:21:52;14.00;;;5.22;;
34212;SDS011;20477;51.390;8.102;2023-03-21T18:24:21;7.18;;;4.85;;
34212;SDS011;20477;51.390;8.102;2023-03-21T18:26:49;8.52;;;4.68;;
34212;SDS011;20477;51.390;8.102;2023-03-21T18:29:17;11.07;;;5.30;;
34212;SDS011;20477;51.390;8.102;2023-03-21T18:32:06;13.50;;;5.57;;
34212;SDS011;20477;51.390;8.102;2023-03-21T18:34:36;8.15;;;4.35;;
34212;SDS011;20477;51.390;8.102;2023-03-21T18:37:05;15.60;;;7.70;;
34212;SDS011;20477;51.390;8.102;2023-03-21T18:39:34;11.30;;;6.32;;
34212;SDS011;20477;51.390;8.102;2023-03-21T18:42:03;7.22;;;4.63;;
34212;SDS011;20477;51.390;8.102;2023-03-21T18:44:37;14.20;;;7.30;;
34212;SDS011;20477;51.390;8.102;2023-03-21T18:47:11;11.52;;;5.68;;
34212;SDS011;20477;51.390;8.102;2023-03-21T18:49:40;11.82;;;5.82;;
34212;SDS011;20477;51.390;8.102;2023-03-21T18:52:29;9.35;;;4.35;;
34212;SDS011;20477;51.390;8.102;2023-03-21T18:54:58;13.43;;;5.07;;
34212;SDS011;20477;51.390;8.102;2023-03-21T18:57:26;9.45;;;5.47;;
34212;SDS011;20477;51.390;8.102;2023-03-21T19:00:03;11.05;;;7.65;;
34212;SDS011;20477;51.390;8.102;2023-03-21T19:02:39;9.55;;;5.72;;
34212;SDS011;20477;51.390;8.102;2023-03-21T19:05:14;9.43;;;5.57;;
34212;SDS011;20477;51.390;8.102;2023-03-21T19:07:43;15.13;;;5.93;;
34212;SDS011;20477;51.390;8.102;2023-03-21T19:10:11;10.80;;;5.50;;
34212;SDS011;20477;51.390;8.102;2023-03-21T19:12:44;12.60;;;6.35;;
34212;SDS011;20477;51.390;8.102;2023-03-21T19:15:13;11.57;;;6.63;;
34212;SDS011;20477;51.390;8.102;2023-03-21T19:17:44;13.88;;;6.95;;
34212;SDS011;20477;51.390;8.102;2023-03-21T19:20:33;9.43;;;5.50;;
34212;SDS011;20477;51.390;8.102;2023-03-21T19:23:02;8.05;;;5.60;;
34212;SDS011;20477;51.390;8.102;2023-03-21T19:25:34;8.98;;;5.38;;
34212;SDS011;20477;51.390;8.102;2023-03-21T19:28:02;7.70;;;5.50;;
34212;SDS011;20477;51.390;8.102;2023-03-21T19:30:31;9.70;;;5.70;;
34212;SDS011;20477;51.390;8.102;2023-03-21T19:33:00;9.13;;;5.40;;
34212;SDS011;20477;51.390;8.102;2023-03-21T19:35:28;8.02;;;5.82;;
34212;SDS011;20477;51.390;8.102;2023-03-21T19:37:58;13.10;;;5.65;;
34212;SDS011;20477;51.390;8.102;2023-03-21T19:40:26;8.43;;;5.75;;
34212;SDS011;20477;51.390;8.102;2023-03-21T19:42:54;11.93;;;6.85;;
34212;SDS011;20477;51.390;8.102;2023-03-21T19:45:23;14.07;;;7.70;;
34212;SDS011;20477;51.390;8.102;2023-03-21T19:47:51;13.38;;;5.95;;
34212;SDS011;20477;51.390;8.102;2023-03-21T19:50:20;10.70;;;6.10;;
34212;SDS011;20477;51.390;8.102;2023-03-21T19:53:15;11.15;;;5.88;;
34212;SDS011;20477;51.390;8.102;2023-03-21T19:55:43;13.27;;;5.75;;
34212;SDS011;20477;51.390;8.102;2023-03-21T19:58:11;11.57;;;6.15;;
34212;SDS011;20477;51.390;8.102;2023-03-21T20:00:41;11.77;;;6.07;;
34212;SDS011;20477;51.390;8.102;2023-03-21T20:03:09;11.15;;;6.22;;
34212;SDS011;20477;51.390;8.102;2023-03-21T20:05:37;12.57;;;6.90;;
34212;SDS011;20477;51.390;8.102;2023-03-21T20:08:06;10.45;;;6.45;;
34212;SDS011;20477;51.390;8.102;2023-03-21T20:10:37;12.20;;;6.70;;
34212;SDS011;20477;51.390;8.102;2023-03-21T20:13:06;14.88;;;6.47;;
34212;SDS011;20477;51.390;8.102;2023-03-21T20:15:34;17.70;;;9.38;;
34212;SDS011;20477;51.390;8.102;2023-03-21T20:18:13;16.67;;;8.85;;
34212;SDS011;20477;51.390;8.102;2023-03-21T20:20:41;11.35;;;7.20;;
34212;SDS011;20477;51.390;8.102;2023-03-21T20:23:09;15.45;;;8.63;;
34212;SDS011;20477;51.390;8.102;2023-03-21T20:25:42;18.92;;;9.07;;
34212;SDS011;20477;51.390;8.102;2023-03-21T20:28:11;17.00;;;8.35;;
34212;SDS011;20477;51.390;8.102;2023-03-21T20:30:50;12.02;;;7.60;;
34212;SDS011;20477;51.390;8.102;2023-03-21T20:33:19;10.93;;;6.82;;
34212;SDS011;20477;51.390;8.102;2023-03-21T20:35:47;11.02;;;7.53;;
34212;SDS011;20477;51.390;8.102;2023-03-21T20:38:36;11.23;;;7.07;;
34212;SDS011;20477;51.390;8.102;2023-03-21T20:41:06;10.82;;;6.88;;
34212;SDS011;20477;51.390;8.102;2023-03-21T20:43:34;13.57;;;7.10;;
34212;SDS011;20477;51.390;8.102;2023-03-21T20:46:22;12.80;;;6.82;;
34212;SDS011;20477;51.390;8.102;2023-03-21T20:48:50;10.15;;;6.63;;
34212;SDS011;20477;51.390;8.102;2023-03-21T20:51:18;13.65;;;6.78;;
34212;SDS011;20477;51.390;8.102;2023-03-21T20:54:06;14.13;;;6.72;;
34212;SDS011;20477;51.390;8.102;2023-03-21T20:56:37;11.05;;;6.22;;
34212;SDS011;20477;51.390;8.102;2023-03-21T20:59:05;16.67;;;7.00;;
34212;SDS011;20477;51.390;8.102;2023-03-21T21:01:48;20.00;;;9.02;;
34212;SDS011;20477;51.390;8.102;2023-03-21T21:04:17;9.82;;;6.28;;
34212;SDS011;20477;51.390;8.102;2023-03-21T21:06:45;13.52;;;7.05;;
34212;SDS011;20477;51.390;8.102;2023-03-21T21:09:14;10.90;;;6.93;;
34212;SDS011;20477;51.390;8.102;2023-03-21T21:11:44;13.57;;;7.43;;
34212;SDS011;20477;51.390;8.102;2023-03-21T21:14:34;12.02;;;6.82;;
34212;SDS011;20477;51.390;8.102;2023-03-21T21:17:02;10.93;;;6.57;;
34212;SDS011;20477;51.390;8.102;2023-03-21T21:19:51;14.02;;;6.60;;
34212;SDS011;20477;51.390;8.102;2023-03-21T21:22:20;12.73;;;6.70;;
34212;SDS011;20477;51.390;8.102;2023-03-21T21:24:48;13.10;;;6.85;;
34212;SDS011;20477;51.390;8.102;2023-03-21T21:27:18;11.85;;;7.13;;
34212;SDS011;20477;51.390;8.102;2023-03-21T21:29:46;8.90;;;6.55;;
34212;SDS011;20477;51.390;8.102;2023-03-21T21:32:15;14.30;;;6.93;;
34212;SDS011;20477;51.390;8.102;2023-03-21T21:34:45;7.82;;;5.88;;
34212;SDS011;20477;51.390;8.102;2023-03-21T21:37:13;11.52;;;6.78;;
34212;SDS011;20477;51.390;8.102;2023-03-21T21:39:42;11.43;;;6.97;;
34212;SDS011;20477;51.390;8.102;2023-03-21T21:42:10;17.15;;;6.50;;
34212;SDS011;20477;51.390;8.102;2023-03-21T21:44:40;12.55;;;7.32;;
34212;SDS011;20477;51.390;8.102;2023-03-21T21:47:10;11.90;;;6.60;;
34212;SDS011;20477;51.390;8.102;2023-03-21T21:49:38;14.60;;;7.35;;
34212;SDS011;20477;51.390;8.102;2023-03-21T21:52:06;8.90;;;6.25;;
34212;SDS011;20477;51.390;8.102;2023-03-21T21:54:38;11.98;;;6.72;;
34212;SDS011;20477;51.390;8.102;2023-03-21T21:57:11;11.70;;;5.90;;
34212;SDS011;20477;51.390;8.102;2023-03-21T21:59:41;11.02;;;6.30;;
34212;SDS011;20477;51.390;8.102;2023-03-21T22:02:10;14.77;;;6.97;;
34212;SDS011;20477;51.390;8.102;2023-03-21T22:04:39;14.43;;;7.15;;
34212;SDS011;20477;51.390;8.102;2023-03-21T22:07:07;10.85;;;6.78;;
34212;SDS011;20477;51.390;8.102;2023-03-21T22:09:39;11.68;;;6.80;;
34212;SDS011;20477;51.390;8.102;2023-03-21T22:12:08;11.60;;;6.00;;
34212;SDS011;20477;51.390;8.102;2023-03-21T22:14:37;10.38;;;6.32;;
34212;SDS011;20477;51.390;8.102;2023-03-21T22:17:06;9.68;;;5.65;;
34212;SDS011;20477;51.390;8.102;2023-03-21T22:19:34;11.50;;;6.38;;
34212;SDS011;20477;51.390;8.102;2023-03-21T22:22:05;13.05;;;6.97;;
34212;SDS011;20477;51.390;8.102;2023-03-21T22:24:33;12.60;;;6.75;;
34212;SDS011;20477;51.390;8.102;2023-03-21T22:27:02;11.25;;;6.80;;
34212;SDS011;20477;51.390;8.102;2023-03-21T22:29:31;13.15;;;6.78;;
34212;SDS011;20477;51.390;8.102;2023-03-21T22:31:59;12.82;;;6.22;;